Time;durP1;ratioP1;P1;durP2;ratioP2;P2;SDS_P1;SDS_P2;PMS_P1;PMS_P2;Temp;Humidity;BMP_temperature;BMP_pressure;BME280_temperature;BME280_humidity;BME280_pressure;Samples;Min_cycle;Max_cycle;Signal;HPM_P1;HPM_P2
2021/01/04 00:02:20;;;;;;;53.58;23.83;;;1.30;99.90;;;;;;5034148;28;20489;-77
2021/01/04 00:05:13;;;;;;;61.10;26.20;;;1.30;99.90;;;;;;5049712;28;20044;-77
2021/01/04 00:08:13;;;;;;;55.92;25.23;;;1.30;99.90;;;;;;5040773;28;20474;-79
2021/01/04 00:10:54;;;;;;;53.58;23.98;;;1.30;99.90;;;;;;5036151;28;20056;-78
2021/01/04 00:13:49;;;;;;;63.10;26.50;;;1.30;99.90;;;;;;5039048;28;20382;-78
2021/01/04 00:16:39;;;;;;;56.50;26.95;;;1.30;99.90;;;;;;5070356;28;20055;-77
2021/01/04 00:19:24;;;;;;;62.15;26.38;;;1.30;99.90;;;;;;5050637;28;20044;-77
2021/01/04 00:22:20;;;;;;;57.95;27.42;;;1.30;99.90;;;;;;5052126;28;20040;-77
2021/01/04 00:24:53;;;;;;;61.65;27.02;;;1.30;99.90;;;;;;5051860;28;20052;-77
2021/01/04 00:27:33;;;;;;;57.17;26.20;;;1.30;99.90;;;;;;5051816;28;20025;-78
2021/01/04 00:30:11;;;;;;;46.03;18.80;;;1.20;99.90;;;;;;5055242;28;20033;-78
2021/01/04 00:32:37;;;;;;;56.92;27.77;;;1.20;99.90;;;;;;5055131;28;20033;-77
2021/01/04 00:35:13;;;;;;;60.65;27.10;;;1.20;99.90;;;;;;5054740;28;20033;-78
2021/01/04 00:37:59;;;;;;;59.45;25.20;;;1.20;99.90;;;;;;5070698;28;20465;-78
2021/01/04 00:40:55;;;;;;;57.88;25.98;;;1.20;99.90;;;;;;5060145;28;20040;-78
2021/01/04 00:43:46;;;;;;;63.80;24.92;;;1.10;99.90;;;;;;5056249;28;20041;-78
2021/01/04 00:46:16;;;;;;;58.75;25.52;;;1.20;99.90;;;;;;5054762;28;20037;-78
2021/01/04 00:48:58;;;;;;;52.08;24.00;;;1.10;99.90;;;;;;5064165;28;20485;-77
2021/01/04 00:51:39;;;;;;;47.83;23.27;;;1.10;99.90;;;;;;5057065;28;20032;-78
2021/01/04 00:54:26;;;;;;;54.88;24.75;;;1.00;99.90;;;;;;5055577;28;20036;-78
2021/01/04 00:56:58;;;;;;;47.75;23.67;;;1.00;99.90;;;;;;5037170;28;20052;-80
2021/01/04 00:59:42;;;;;;;50.75;24.27;;;1.00;99.90;;;;;;5052874;28;20057;-79
2021/01/04 01:02:36;;;;;;;57.33;24.40;;;1.00;99.90;;;;;;5054800;28;20037;-78
2021/01/04 01:05:32;;;;;;;48.67;23.55;;;1.00;99.90;;;;;;5054462;28;20152;-78
2021/01/04 01:08:13;;;;;;;50.42;21.73;;;1.00;99.90;;;;;;5044076;28;20040;-78
2021/01/04 01:10:44;;;;;;;50.97;22.98;;;1.00;99.90;;;;;;5060673;28;20045;-78
2021/01/04 01:13:21;;;;;;;49.38;22.65;;;1.00;99.90;;;;;;5054357;28;20029;-77
2021/01/04 01:16:35;;;;;;;46.72;22.55;;;1.00;99.90;;;;;;5035378;28;20033;-77
2021/01/04 01:19:23;;;;;;;46.13;22.45;;;1.00;99.90;;;;;;5041273;28;20394;-78
2021/01/04 01:21:49;;;;;;;51.63;22.73;;;1.00;99.90;;;;;;5063265;28;20466;-79
2021/01/04 01:24:16;;;;;;;52.38;24.52;;;1.00;99.90;;;;;;5063623;28;20029;-80
2021/01/04 01:27:00;;;;;;;48.92;24.90;;;1.00;99.90;;;;;;5053716;28;20033;-79
2021/01/04 01:29:57;;;;;;;53.15;23.02;;;1.00;99.90;;;;;;5054852;28;20044;-79
2021/01/04 01:32:55;;;;;;;57.47;26.02;;;1.10;99.90;;;;;;5054299;28;20037;-80
2021/01/04 01:35:55;;;;;;;53.55;25.20;;;1.10;99.90;;;;;;5053907;28;20044;-79
2021/01/04 01:38:53;;;;;;;54.38;25.92;;;1.10;99.90;;;;;;5049035;28;20025;-80
2021/01/04 01:41:46;;;;;;;58.53;26.88;;;1.20;99.90;;;;;;5037037;28;20037;-80
2021/01/04 01:44:17;;;;;;;53.25;24.65;;;1.20;99.90;;;;;;5065135;28;20501;-79
2021/01/04 01:46:56;;;;;;;54.65;25.48;;;1.20;99.90;;;;;;5056233;28;20044;-79
2021/01/04 01:49:42;;;;;;;56.10;25.52;;;1.20;99.90;;;;;;5038339;28;20045;-80
2021/01/04 01:52:33;;;;;;;54.67;25.60;;;1.20;99.90;;;;;;5053711;28;20033;-79
2021/01/04 01:55:46;;;;;;;47.88;20.73;;;1.20;99.90;;;;;;5053782;28;20029;-80
2021/01/04 01:58:28;;;;;;;82.80;38.00;;;1.20;99.90;;;;;;5045652;28;20394;-80
2021/01/04 02:01:40;;;;;;;59.35;28.50;;;1.10;99.90;;;;;;5054140;28;20465;-80
2021/01/04 02:04:20;;;;;;;54.55;27.48;;;1.20;99.90;;;;;;5043291;28;20048;-80
2021/01/04 02:07:01;;;;;;;55.22;25.13;;;1.20;99.90;;;;;;5053398;28;20040;-80
2021/01/04 02:09:55;;;;;;;51.75;24.05;;;1.10;99.90;;;;;;5054136;28;20029;-79
2021/01/04 02:12:25;;;;;;;50.72;24.88;;;1.10;99.90;;;;;;5028281;28;20037;-79
2021/01/04 02:15:12;;;;;;;55.63;25.20;;;1.20;99.90;;;;;;5053488;28;20044;-79
2021/01/04 02:18:00;;;;;;;63.92;25.92;;;1.20;99.90;;;;;;5053170;28;20033;-80
2021/01/04 02:20:44;;;;;;;60.88;26.45;;;1.20;99.90;;;;;;5035318;28;20355;-79
2021/01/04 02:24:04;;;;;;;69.32;26.67;;;1.20;99.90;;;;;;5035332;28;20029;-80
2021/01/04 02:26:30;;;;;;;61.63;27.83;;;1.20;99.90;;;;;;4971676;28;20047;-79
2021/01/04 02:29:09;;;;;;;69.20;28.48;;;1.10;99.90;;;;;;5040177;28;20385;-77
2021/01/04 02:31:38;;;;;;;68.60;26.55;;;1.10;99.90;;;;;;5056763;28;20513;-80
2021/01/04 02:34:09;;;;;;;62.13;26.08;;;1.10;99.90;;;;;;5069401;28;20466;-80
2021/01/04 02:36:53;;;;;;;40.92;18.80;;;1.10;99.90;;;;;;5057397;28;20056;-80
2021/01/04 02:39:21;;;;;;;59.75;25.08;;;1.10;99.90;;;;;;5039311;28;20087;-79
2021/01/04 02:41:56;;;;;;;66.80;25.45;;;1.10;99.90;;;;;;5054623;28;20040;-80
2021/01/04 02:44:25;;;;;;;57.00;26.40;;;1.10;99.90;;;;;;5037552;28;20040;-80
2021/01/04 02:47:03;;;;;;;57.90;25.77;;;1.10;99.90;;;;;;5036864;28;20033;-80
2021/01/04 02:50:00;;;;;;;59.38;26.23;;;1.10;99.90;;;;;;5062378;28;20033;-80
2021/01/04 02:53:00;;;;;;;58.63;25.10;;;1.10;99.90;;;;;;5034652;28;20044;-80
2021/01/04 02:56:04;;;;;;;58.35;24.70;;;1.10;99.90;;;;;;5053006;28;20028;-80
2021/01/04 02:59:01;;;;;;;52.70;24.83;;;1.00;99.90;;;;;;5040784;28;20367;-80
2021/01/04 03:01:43;;;;;;;56.50;26.23;;;1.00;99.90;;;;;;5034887;28;20052;-80
2021/01/04 03:04:14;;;;;;;51.70;24.52;;;1.10;99.90;;;;;;5060487;28;20052;-80
2021/01/04 03:06:51;;;;;;;49.97;26.08;;;1.10;99.90;;;;;;5035009;28;20029;-79
2021/01/04 03:09:17;;;;;;;54.95;26.02;;;1.00;99.90;;;;;;5051979;28;20029;-80
2021/01/04 03:11:44;;;;;;;55.10;25.35;;;1.10;99.90;;;;;;5052448;28;20025;-79
2021/01/04 03:14:40;;;;;;;60.25;25.50;;;1.00;99.90;;;;;;5034266;28;20402;-80
2021/01/04 03:17:43;;;;;;;54.80;25.70;;;1.00;99.90;;;;;;5033843;28;20037;-80
2021/01/04 03:20:17;;;;;;;61.25;25.08;;;1.00;99.90;;;;;;5052637;28;20033;-80
2021/01/04 03:22:48;;;;;;;60.35;26.30;;;1.10;99.90;;;;;;5048222;28;20055;-79
2021/01/04 03:25:43;;;;;;;61.45;26.42;;;1.10;99.90;;;;;;5062055;28;20289;-77
2021/01/04 03:28:20;;;;;;;60.72;27.30;;;1.00;99.90;;;;;;5037295;28;20041;-80
2021/01/04 03:30:46;;;;;;;60.42;26.45;;;1.10;99.90;;;;;;5052386;28;20055;-80
2021/01/04 03:33:13;;;;;;;66.25;27.33;;;1.10;99.90;;;;;;5061181;28;20064;-80
2021/01/04 03:35:39;;;;;;;63.25;27.08;;;1.00;99.90;;;;;;5059674;28;20398;-80
2021/01/04 03:38:05;;;;;;;59.50;24.92;;;1.10;99.90;;;;;;5052052;28;20044;-78
2021/01/04 03:40:31;;;;;;;56.70;26.42;;;1.10;99.90;;;;;;5052242;28;20041;-78
2021/01/04 03:42:57;;;;;;;63.47;27.15;;;1.00;99.90;;;;;;5052182;28;20036;-78
2021/01/04 03:45:24;;;;;;;64.10;28.90;;;1.10;99.90;;;;;;5051536;28;20025;-78
2021/01/04 03:47:50;;;;;;;64.00;28.65;;;1.10;99.90;;;;;;5052078;28;20028;-78
2021/01/04 03:50:16;;;;;;;63.70;28.10;;;1.10;99.90;;;;;;5052060;28;20047;-78
2021/01/04 03:52:43;;;;;;;60.85;27.75;;;1.10;99.90;;;;;;5052477;28;20040;-78
2021/01/04 03:55:11;;;;;;;58.92;27.73;;;1.00;99.90;;;;;;5052070;28;20410;-78
2021/01/04 03:57:37;;;;;;;63.20;26.50;;;1.00;99.90;;;;;;5052314;28;20033;-78
2021/01/04 04:00:06;;;;;;;59.90;26.88;;;1.00;99.90;;;;;;5064533;28;20036;-77
2021/01/04 04:02:38;;;;;;;59.72;25.80;;;1.00;99.90;;;;;;5068859;28;20049;-77
2021/01/04 04:05:06;;;;;;;58.17;25.63;;;1.00;99.90;;;;;;5072333;28;20029;-79
2021/01/04 04:07:32;;;;;;;56.10;24.77;;;1.00;99.90;;;;;;5056260;28;20037;-78
2021/01/04 04:09:59;;;;;;;55.28;26.33;;;1.00;99.90;;;;;;5037944;28;20029;-78
2021/01/04 04:12:26;;;;;;;63.38;26.27;;;1.00;99.90;;;;;;5037701;28;20033;-80
2021/01/04 04:14:52;;;;;;;62.45;26.70;;;1.00;99.90;;;;;;5038520;28;20044;-79
2021/01/04 04:17:19;;;;;;;60.40;25.75;;;1.00;99.90;;;;;;5055896;28;20033;-78
2021/01/04 04:19:47;;;;;;;56.90;25.50;;;1.00;99.90;;;;;;5058833;28;20481;-78
2021/01/04 04:22:13;;;;;;;55.90;25.95;;;1.00;99.90;;;;;;5055758;28;20397;-79
2021/01/04 04:24:41;;;;;;;59.53;25.52;;;1.00;99.90;;;;;;5055898;28;20021;-79
2021/01/04 04:27:11;;;;;;;51.92;23.88;;;1.00;99.90;;;;;;5057281;28;20029;-78
2021/01/04 04:29:38;;;;;;;52.88;24.25;;;1.00;99.90;;;;;;5072459;28;20059;-78
2021/01/04 04:32:06;;;;;;;53.85;26.88;;;1.00;99.90;;;;;;5055369;28;20447;-78
2021/01/04 04:34:33;;;;;;;52.53;24.80;;;1.00;99.90;;;;;;5040001;28;20486;-78
2021/01/04 04:36:59;;;;;;;55.50;24.42;;;1.00;99.90;;;;;;5058918;28;20040;-80
2021/01/04 04:39:26;;;;;;;53.22;24.45;;;1.00;99.90;;;;;;5055986;28;20025;-80
2021/01/04 04:41:54;;;;;;;52.35;23.30;;;1.00;99.90;;;;;;5055408;28;20025;-78
2021/01/04 04:44:33;;;;;;;50.28;24.50;;;0.90;99.90;;;;;;5055340;28;20041;-78
2021/01/04 04:47:11;;;;;;;50.20;24.25;;;1.00;99.90;;;;;;5052596;28;20029;-79
2021/01/04 04:50:14;;;;;;;48.67;23.35;;;1.00;99.90;;;;;;5065847;28;20029;-79
2021/01/04 04:53:06;;;;;;;48.20;22.42;;;0.90;99.90;;;;;;5068946;28;20025;-78
2021/01/04 04:55:50;;;;;;;41.88;22.38;;;1.00;99.90;;;;;;5055520;28;20036;-78
2021/01/04 04:58:43;;;;;;;49.83;23.00;;;0.90;99.90;;;;;;5072684;28;20038;-78
2021/01/04 05:01:23;;;;;;;46.97;22.27;;;1.00;99.90;;;;;;5062646;28;20041;-78
2021/01/04 05:04:07;;;;;;;50.70;23.27;;;1.00;99.90;;;;;;5055314;28;20390;-78
2021/01/04 05:06:43;;;;;;;44.88;21.27;;;1.00;99.90;;;;;;5064629;28;20040;-78
2021/01/04 05:09:25;;;;;;;54.58;23.45;;;1.00;99.90;;;;;;5067844;28;20032;-78
2021/01/04 05:12:36;;;;;;;51.10;23.75;;;1.00;99.90;;;;;;5054584;28;20033;-78
2021/01/04 05:15:40;;;;;;;49.13;21.98;;;1.00;99.90;;;;;;5057239;28;20048;-78
2021/01/04 05:18:34;;;;;;;49.88;22.40;;;1.00;99.90;;;;;;4973383;28;20049;-77
2021/01/04 05:21:37;;;;;;;49.80;22.25;;;0.90;99.90;;;;;;4973324;28;20039;-77
2021/01/04 05:24:39;;;;;;;50.85;23.30;;;0.90;99.90;;;;;;5046539;28;20045;-77
2021/01/04 05:27:36;;;;;;;36.88;18.15;;;0.90;99.90;;;;;;5037009;28;20048;-77
2021/01/04 05:30:19;;;;;;;48.45;22.45;;;0.90;99.90;;;;;;5054217;28;20044;-78
2021/01/04 05:32:51;;;;;;;52.30;23.17;;;0.90;99.90;;;;;;5045832;28;20040;-77
2021/01/04 05:35:18;;;;;;;51.53;22.95;;;0.90;99.90;;;;;;5055574;28;20029;-79
2021/01/04 05:38:08;;;;;;;51.63;23.65;;;0.90;99.90;;;;;;5054480;28;20044;-78
2021/01/04 05:41:01;;;;;;;53.22;24.08;;;0.90;99.90;;;;;;5055357;28;20056;-77
2021/01/04 05:43:54;;;;;;;51.10;23.33;;;0.90;99.90;;;;;;5055291;28;20029;-78
2021/01/04 05:46:44;;;;;;;47.53;22.23;;;0.90;99.90;;;;;;5053952;28;20040;-77
2021/01/04 05:49:35;;;;;;;44.85;21.58;;;1.00;99.90;;;;;;5054081;28;20037;-78
2021/01/04 05:52:02;;;;;;;42.08;20.60;;;1.00;99.90;;;;;;5054238;28;20031;-78
2021/01/04 05:54:31;;;;;;;48.90;22.42;;;1.00;99.90;;;;;;5054460;28;20048;-77
2021/01/04 05:57:09;;;;;;;45.28;21.52;;;1.00;99.90;;;;;;5054087;28;20032;-84
2021/01/04 05:59:49;;;;;;;47.65;22.35;;;0.90;99.90;;;;;;5036852;28;20492;-78
2021/01/04 06:02:23;;;;;;;46.75;20.08;;;1.00;99.90;;;;;;5053921;28;20040;-77
2021/01/04 06:04:49;;;;;;;46.47;22.10;;;0.90;99.90;;;;;;5054021;28;20048;-77
2021/01/04 06:07:16;;;;;;;54.35;23.77;;;0.90;99.90;;;;;;5048784;28;20047;-77
2021/01/04 06:09:54;;;;;;;50.20;21.95;;;0.90;99.90;;;;;;5054330;28;20044;-77
2021/01/04 06:12:33;;;;;;;45.75;21.30;;;0.90;99.90;;;;;;5053572;28;20442;-77
2021/01/04 06:15:00;;;;;;;49.70;21.83;;;0.90;99.90;;;;;;5053439;28;20485;-77
2021/01/04 06:17:34;;;;;;;50.67;23.50;;;0.90;99.90;;;;;;5063605;28;20025;-77
2021/01/04 06:20:10;;;;;;;40.45;20.65;;;1.00;99.90;;;;;;5054014;28;20036;-77
2021/01/04 06:22:37;;;;;;;47.70;21.58;;;0.90;99.90;;;;;;5036575;28;20100;-77
2021/01/04 06:25:07;;;;;;;43.38;22.23;;;0.90;99.90;;;;;;5062048;28;20047;-77
2021/01/04 06:27:43;;;;;;;51.65;23.27;;;1.00;99.90;;;;;;5064793;28;20029;-77
2021/01/04 06:30:31;;;;;;;46.35;21.40;;;0.90;99.90;;;;;;5038573;28;20467;-77
2021/01/04 06:33:24;;;;;;;44.22;21.65;;;0.90;99.90;;;;;;5053713;28;20041;-77
2021/01/04 06:36:07;;;;;;;46.10;22.58;;;0.90;99.90;;;;;;5071949;28;20052;-78
2021/01/04 06:38:38;;;;;;;44.28;22.60;;;1.00;99.90;;;;;;5052918;28;20485;-77
2021/01/04 06:41:14;;;;;;;40.38;20.70;;;0.90;99.90;;;;;;5051414;28;20366;-78
2021/01/04 06:43:40;;;;;;;44.90;22.75;;;0.90;99.90;;;;;;5035656;28;20033;-77
2021/01/04 06:46:48;;;;;;;39.70;21.20;;;0.90;99.90;;;;;;5035528;28;20049;-77
2021/01/04 06:49:23;;;;;;;43.83;21.80;;;0.90;99.90;;;;;;5054384;28;20033;-77
2021/01/04 06:52:30;;;;;;;42.20;20.52;;;1.00;99.90;;;;;;5060183;28;20064;-77
2021/01/04 06:55:02;;;;;;;41.33;19.77;;;1.00;99.90;;;;;;5015347;28;20041;-77
2021/01/04 06:57:46;;;;;;;39.63;20.50;;;1.00;99.90;;;;;;5053218;28;20036;-77
2021/01/04 07:00:44;;;;;;;43.97;21.52;;;1.00;99.90;;;;;;5060800;28;20037;-77
2021/01/04 07:03:45;;;;;;;42.03;19.75;;;1.00;99.90;;;;;;5038569;28;20486;-78
2021/01/04 07:06:32;;;;;;;38.38;19.45;;;1.00;99.90;;;;;;5034757;28;20036;-77
2021/01/04 07:09:19;;;;;;;35.50;18.80;;;1.00;99.90;;;;;;5052639;28;20037;-77
2021/01/04 07:11:50;;;;;;;39.05;20.17;;;1.00;99.90;;;;;;5053417;28;20029;-77
2021/01/04 07:14:28;;;;;;;37.27;19.43;;;1.00;99.90;;;;;;5052485;28;20392;-77
2021/01/04 07:16:59;;;;;;;37.70;20.25;;;1.00;99.90;;;;;;5034210;28;20045;-76
2021/01/04 07:20:00;;;;;;;45.03;20.70;;;1.00;99.90;;;;;;5056641;28;20031;-77
2021/01/04 07:22:29;;;;;;;;;;;1.00;99.90;;;;;;5063518;28;20044;-76
2021/01/04 07:25:15;;;;;;;48.20;21.35;;;1.00;99.90;;;;;;5053887;28;19913;-75
2021/01/04 07:28:06;;;;;;;42.80;20.42;;;1.00;99.90;;;;;;5050633;28;20037;-81
2021/01/04 07:30:53;;;;;;;45.60;21.10;;;1.00;99.90;;;;;;5055844;28;20036;-80
2021/01/04 07:33:35;;;;;;;39.92;21.40;;;1.00;99.90;;;;;;5052402;28;20044;-81
2021/01/04 07:36:29;;;;;;;39.78;20.08;;;1.10;99.90;;;;;;5052759;28;20386;-80
2021/01/04 07:39:16;;;;;;;39.67;20.85;;;1.10;99.90;;;;;;5059702;28;20036;-86
2021/01/04 07:42:05;;;;;;;40.47;20.25;;;1.10;99.90;;;;;;5059325;28;20496;-81
2021/01/04 07:45:07;;;;;;;39.75;19.23;;;1.10;99.90;;;;;;5072630;28;20386;-79
2021/01/04 07:47:39;;;;;;;35.45;18.20;;;1.10;99.90;;;;;;5059288;28;20041;-81
2021/01/04 07:50:36;;;;;;;40.25;20.92;;;1.10;99.90;;;;;;5059341;28;20135;-81
2021/01/04 07:53:25;;;;;;;36.58;20.05;;;1.10;99.90;;;;;;5076655;28;20425;-81
2021/01/04 07:56:12;;;;;;;39.55;20.02;;;1.10;99.90;;;;;;5060983;28;20044;-78
2021/01/04 07:59:02;;;;;;;43.08;20.63;;;1.10;99.90;;;;;;5041899;28;20071;-80
2021/01/04 08:01:49;;;;;;;44.78;20.65;;;1.10;99.90;;;;;;5059197;28;20051;-79
2021/01/04 08:05:10;;;;;;;40.15;20.10;;;1.10;99.90;;;;;;5058699;28;20040;-80
2021/01/04 08:08:01;;;;;;;40.45;20.83;;;1.20;99.90;;;;;;4980932;28;20488;-80
2021/01/04 08:10:33;;;;;;;32.13;15.57;;;1.10;99.90;;;;;;5052035;28;20043;-79
2021/01/04 08:13:33;;;;;;;39.65;20.75;;;1.10;99.90;;;;;;5064352;28;20024;-79
2021/01/04 08:16:05;;;;;;;37.67;17.98;;;1.10;99.90;;;;;;5060844;28;20030;-78
2021/01/04 08:18:33;;;;;;;39.80;18.17;;;1.10;99.90;;;;;;5067400;28;20405;-78
2021/01/04 08:21:05;;;;;;;36.47;21.38;;;1.20;99.90;;;;;;5067635;28;20044;-77
2021/01/04 08:23:39;;;;;;;41.38;19.98;;;1.10;99.90;;;;;;5059241;28;20477;-78
2021/01/04 08:26:30;;;;;;;38.47;19.13;;;1.10;99.90;;;;;;5058222;28;20029;-79
2021/01/04 08:29:15;;;;;;;34.13;19.23;;;1.10;99.90;;;;;;5040889;28;20036;-79
2021/01/04 08:31:45;;;;;;;39.72;19.27;;;1.20;99.90;;;;;;5059133;28;20486;-79
2021/01/04 08:34:22;;;;;;;36.97;19.02;;;1.20;99.90;;;;;;5040778;28;20045;-79
2021/01/04 08:36:56;;;;;;;31.10;18.52;;;1.20;99.90;;;;;;5063562;28;20048;-81
2021/01/04 08:39:22;;;;;;;33.83;18.75;;;1.20;99.90;;;;;;5077924;28;20702;-81
2021/01/04 08:42:13;;;;;;;35.15;19.52;;;1.20;99.90;;;;;;5080908;28;20051;-81
2021/01/04 08:44:51;;;;;;;32.70;19.02;;;1.20;99.90;;;;;;5092258;28;20377;-81
2021/01/04 08:47:26;;;;;;;33.55;18.90;;;1.20;99.90;;;;;;5077034;28;20075;-80
2021/01/04 08:50:04;;;;;;;39.40;19.27;;;1.20;99.90;;;;;;5074861;28;20048;-80
2021/01/04 08:52:48;;;;;;;33.45;18.83;;;1.20;99.90;;;;;;5085090;28;20035;-80
2021/01/04 08:55:31;;;;;;;36.75;18.25;;;1.30;99.90;;;;;;5076061;28;20028;-80
2021/01/04 08:58:01;;;;;;;34.38;17.60;;;1.20;99.90;;;;;;5063328;28;20047;-80
2021/01/04 09:00:29;;;;;;;36.03;18.25;;;1.30;99.90;;;;;;5082421;28;20051;-80
2021/01/04 09:02:56;;;;;;;31.08;17.65;;;1.20;99.90;;;;;;5075521;28;20036;-81
2021/01/04 09:05:38;;;;;;;36.47;19.85;;;1.30;99.90;;;;;;5083594;28;20039;-80
2021/01/04 09:08:05;;;;;;;;;;;1.30;99.90;;;;;;5083115;28;20426;-80
2021/01/04 09:10:46;;;;;;;33.17;17.17;;;1.30;99.90;;;;;;5084368;28;19908;-81
2021/01/04 09:13:33;;;;;;;31.20;16.65;;;1.30;99.90;;;;;;5080465;28;20031;-80
2021/01/04 09:16:30;;;;;;;38.22;19.60;;;1.30;99.90;;;;;;5081007;28;20045;-80
2021/01/04 09:19:20;;;;;;;41.22;20.05;;;1.40;99.90;;;;;;5080797;28;20505;-81
2021/01/04 09:21:46;;;;;;;34.85;18.55;;;1.40;99.90;;;;;;5075498;28;20037;-79
2021/01/04 09:24:24;;;;;;;34.88;17.88;;;1.40;99.90;;;;;;5074989;28;20036;-77
2021/01/04 09:26:53;;;;;;;32.03;17.85;;;1.40;99.90;;;;;;5073599;28;20036;-78
2021/01/04 09:29:31;;;;;;;34.40;17.75;;;1.40;99.90;;;;;;5072215;28;20040;-79
2021/01/04 09:32:08;;;;;;;35.03;18.42;;;1.50;99.90;;;;;;5075624;28;20055;-77
2021/01/04 09:34:35;;;;;;;33.42;18.80;;;1.40;99.90;;;;;;5088098;28;20033;-77
2021/01/04 09:37:10;;;;;;;36.72;19.98;;;1.50;99.90;;;;;;5061393;28;20052;-77
2021/01/04 09:39:40;;;;;;;32.35;17.42;;;1.50;99.90;;;;;;5057722;28;20036;-77
2021/01/04 09:42:10;;;;;;;35.33;17.73;;;1.50;99.90;;;;;;5053476;28;20044;-77
2021/01/04 09:44:36;;;;;;;29.23;17.80;;;1.50;99.90;;;;;;5054683;28;20037;-77
2021/01/04 09:47:07;;;;;;;33.58;16.85;;;1.50;99.90;;;;;;5054384;28;20036;-81
2021/01/04 09:49:38;;;;;;;;;;;1.50;99.90;;;;;;5054530;28;20029;-78
2021/01/04 09:52:43;;;;;;;34.03;17.20;;;1.60;99.90;;;;;;5053227;28;20353;-78
2021/01/04 09:55:12;;;;;;;35.25;17.98;;;1.60;99.90;;;;;;5035867;28;20041;-77
2021/01/04 09:57:44;;;;;;;30.20;16.52;;;1.60;99.90;;;;;;5054130;28;20025;-76
2021/01/04 10:00:25;;;;;;;35.38;18.45;;;1.60;99.90;;;;;;5039054;28;20041;-77
2021/01/04 10:03:17;;;;;;;41.65;18.63;;;1.60;99.90;;;;;;5057334;28;20033;-76
2021/01/04 10:05:45;;;;;;;32.13;19.77;;;1.60;99.90;;;;;;5052490;28;20490;-77
2021/01/04 10:08:27;;;;;;;35.50;19.52;;;1.60;99.90;;;;;;5058620;28;20036;-77
2021/01/04 10:11:07;;;;;;;32.80;18.85;;;1.70;99.90;;;;;;5053333;28;20028;-77
2021/01/04 10:13:37;;;;;;;35.97;18.52;;;1.70;99.90;;;;;;5053478;28;20037;-77
2021/01/04 10:16:08;;;;;;;41.77;18.73;;;1.70;99.90;;;;;;5053106;28;20037;-82
2021/01/04 10:18:48;;;;;;;31.30;17.93;;;1.80;99.90;;;;;;5035459;28;20035;-77
2021/01/04 10:21:24;;;;;;;32.97;16.67;;;1.80;99.90;;;;;;5034231;28;20375;-77
2021/01/04 10:24:04;;;;;;;35.60;18.70;;;1.80;99.90;;;;;;5053076;28;20032;-78
2021/01/04 10:27:00;;;;;;;37.30;18.35;;;1.80;99.90;;;;;;5055640;28;20035;-77
2021/01/04 10:29:27;;;;;;;31.75;15.93;;;1.80;99.90;;;;;;5050541;28;20604;-77
2021/01/04 10:32:13;;;;;;;38.05;18.17;;;1.80;99.90;;;;;;5035571;28;20044;-77
2021/01/04 10:34:48;;;;;;;41.58;16.80;;;1.90;99.90;;;;;;5053053;28;20076;-77
2021/01/04 10:37:26;;;;;;;36.28;17.17;;;1.90;99.90;;;;;;5053052;28;20049;-77
2021/01/04 10:40:03;;;;;;;29.33;16.35;;;1.90;99.90;;;;;;5037279;28;20033;-77
2021/01/04 10:42:30;;;;;;;30.92;16.17;;;1.90;99.90;;;;;;5052760;28;20470;-78
2021/01/04 10:45:20;;;;;;;31.67;17.95;;;2.00;99.90;;;;;;5046439;28;20417;-77
2021/01/04 10:48:01;;;;;;;34.65;16.85;;;2.00;99.90;;;;;;5044143;28;20049;-78
2021/01/04 10:50:43;;;;;;;36.95;18.52;;;1.90;99.90;;;;;;5052288;28;20043;-77
2021/01/04 10:53:13;;;;;;;40.17;19.77;;;1.90;99.90;;;;;;5058779;28;20044;-77
2021/01/04 10:55:52;;;;;;;34.22;18.45;;;2.00;99.90;;;;;;5054456;28;20037;-76
2021/01/04 10:58:31;;;;;;;36.65;17.75;;;2.00;99.90;;;;;;5047732;28;20067;-77
2021/01/04 11:01:08;;;;;;;31.42;16.33;;;2.00;99.90;;;;;;5053757;28;20041;-77
2021/01/04 11:03:34;;;;;;;35.88;17.52;;;2.00;99.90;;;;;;5064795;28;20029;-77
2021/01/04 11:06:00;;;;;;;33.63;17.55;;;2.00;99.90;;;;;;5059949;28;20414;-77
2021/01/04 11:08:33;;;;;;;38.25;17.25;;;2.00;99.90;;;;;;5039631;28;20037;-77
2021/01/04 11:11:34;;;;;;;36.13;16.67;;;2.00;99.90;;;;;;5066529;28;20482;-77
2021/01/04 11:14:18;;;;;;;31.45;16.15;;;2.10;99.90;;;;;;5052117;28;20052;-80
2021/01/04 11:16:50;;;;;;;29.30;15.15;;;2.10;99.90;;;;;;5040732;28;20037;-77
2021/01/04 11:19:32;;;;;;;33.65;17.20;;;2.00;99.90;;;;;;5051712;28;20029;-77
2021/01/04 11:22:09;;;;;;;;;;;2.10;99.90;;;;;;5033996;28;20041;-77
2021/01/04 11:24:36;;;;;;;31.77;15.70;;;2.10;99.90;;;;;;5033136;28;19913;-77
2021/01/04 11:27:02;;;;;;;30.98;16.08;;;2.10;99.90;;;;;;5060081;28;20036;-80
2021/01/04 11:29:28;;;;;;;30.77;16.80;;;2.10;99.90;;;;;;5033693;28;20037;-78
2021/01/04 11:31:54;;;;;;;30.55;17.02;;;2.10;99.90;;;;;;5051796;28;20048;-78
2021/01/04 11:34:21;;;;;;;32.47;16.40;;;2.20;99.90;;;;;;5062539;28;20470;-77
2021/01/04 11:36:47;;;;;;;35.22;16.83;;;2.20;99.90;;;;;;5054043;28;20040;-82
2021/01/04 11:39:15;;;;;;;29.02;16.55;;;2.20;99.90;;;;;;5052168;28;20037;-80
2021/01/04 11:41:44;;;;;;;34.15;16.63;;;2.20;99.90;;;;;;5033951;28;20044;-79
2021/01/04 11:44:11;;;;;;;32.95;16.83;;;2.30;99.90;;;;;;5052286;28;20029;-80
2021/01/04 11:46:37;;;;;;;29.98;16.77;;;2.20;99.90;;;;;;5061809;28;20053;-79
2021/01/04 11:49:04;;;;;;;27.95;15.30;;;2.20;99.90;;;;;;5059036;28;20048;-79
2021/01/04 11:51:31;;;;;;;31.33;16.20;;;2.20;99.90;;;;;;5051554;28;20033;-76
2021/01/04 11:53:57;;;;;;;29.65;17.00;;;2.20;99.90;;;;;;5059147;28;20029;-76
2021/01/04 11:56:25;;;;;;;32.33;17.30;;;2.20;99.90;;;;;;5060161;28;20037;-77
2021/01/04 11:58:52;;;;;;;35.03;17.23;;;2.30;99.90;;;;;;5051822;28;20029;-79
2021/01/04 12:01:18;;;;;;;33.63;16.60;;;2.30;99.90;;;;;;5051279;28;20033;-76
2021/01/04 12:03:44;;;;;;;33.95;17.95;;;2.30;99.90;;;;;;5051998;28;20040;-76
2021/01/04 12:06:12;;;;;;;35.38;18.50;;;2.30;99.90;;;;;;5051145;28;20033;-76
2021/01/04 12:08:38;;;;;;;35.15;19.00;;;2.30;99.90;;;;;;5053099;28;20406;-76
2021/01/04 12:11:05;;;;;;;34.03;17.05;;;2.30;99.90;;;;;;5059379;28;20422;-75
2021/01/04 12:13:32;;;;;;;29.60;16.08;;;2.30;99.90;;;;;;5051637;28;20489;-75
2021/01/04 12:15:59;;;;;;;26.85;15.05;;;2.30;99.90;;;;;;5051645;28;20032;-76
2021/01/04 12:18:25;;;;;;;34.53;17.95;;;2.20;99.90;;;;;;5050755;28;20029;-76
2021/01/04 12:20:53;;;;;;;36.72;17.73;;;2.30;99.90;;;;;;5051747;28;20032;-76
2021/01/04 12:23:19;;;;;;;28.80;16.10;;;2.20;99.90;;;;;;5061706;28;20391;-76
2021/01/04 12:25:45;;;;;;;40.70;20.58;;;2.20;99.90;;;;;;5020455;28;20052;-76
2021/01/04 12:28:12;;;;;;;37.53;19.17;;;2.30;99.90;;;;;;5037460;28;20059;-78
2021/01/04 12:30:38;;;;;;;34.30;17.88;;;2.30;99.90;;;;;;5062943;28;20028;-77
2021/01/04 12:33:05;;;;;;;35.00;18.55;;;2.30;99.90;;;;;;5062501;28;20045;-78
2021/01/04 12:35:31;;;;;;;34.08;17.40;;;2.30;99.90;;;;;;5071302;28;20025;-78
2021/01/04 12:37:57;;;;;;;34.38;16.73;;;2.30;99.90;;;;;;5056703;28;20049;-78
2021/01/04 12:40:29;;;;;;;37.25;18.27;;;2.30;99.90;;;;;;5054857;28;20044;-78
2021/01/04 12:42:57;;;;;;;37.88;17.35;;;2.30;99.90;;;;;;5055625;28;20394;-79
2021/01/04 12:45:25;;;;;;;36.78;18.88;;;2.30;99.90;;;;;;5055107;28;20040;-78
2021/01/04 12:47:51;;;;;;;32.60;17.73;;;2.20;99.90;;;;;;5072757;28;20032;-78
2021/01/04 12:50:18;;;;;;;38.67;19.23;;;2.30;99.90;;;;;;5064694;28;20012;-79
2021/01/04 12:52:44;;;;;;;39.97;19.65;;;2.20;99.90;;;;;;5059771;28;20059;-78
2021/01/04 12:55:11;;;;;;;33.55;16.52;;;2.30;99.90;;;;;;5078568;28;20508;-79
2021/01/04 12:57:37;;;;;;;32.95;17.75;;;2.30;99.90;;;;;;5061648;28;20393;-78
2021/01/04 13:00:06;;;;;;;34.92;17.33;;;2.30;99.90;;;;;;5045297;28;20044;-78
2021/01/04 13:02:33;;;;;;;39.53;19.58;;;2.30;99.90;;;;;;5054695;28;20048;-78
2021/01/04 13:04:59;;;;;;;39.75;19.27;;;2.30;99.90;;;;;;5054422;28;20037;-79
2021/01/04 13:07:27;;;;;;;37.83;17.77;;;2.30;99.90;;;;;;5038802;28;20064;-79
2021/01/04 13:09:54;;;;;;;35.65;18.73;;;2.30;99.90;;;;;;5059557;28;20032;-78
2021/01/04 13:12:20;;;;;;;36.55;18.10;;;2.30;99.90;;;;;;5035779;28;20040;-78
2021/01/04 13:14:49;;;;;;;32.97;17.27;;;2.30;99.90;;;;;;5057516;28;20028;-78
2021/01/04 13:17:16;;;;;;;36.83;19.25;;;2.30;99.90;;;;;;5065907;28;20040;-78
2021/01/04 13:19:44;;;;;;;38.50;18.42;;;2.30;99.90;;;;;;5054435;28;20040;-78
2021/01/04 13:22:10;;;;;;;35.70;18.35;;;2.30;99.90;;;;;;5042808;28;20159;-80
2021/01/04 13:24:36;;;;;;;36.55;18.60;;;2.30;99.90;;;;;;5054301;28;20033;-78
2021/01/04 13:27:03;;;;;;;36.38;18.42;;;2.40;99.90;;;;;;5054692;28;20479;-78
2021/01/04 13:29:30;;;;;;;36.83;19.20;;;2.30;99.90;;;;;;5066232;28;20044;-77
2021/01/04 13:32:03;;;;;;;35.92;17.52;;;2.40;99.90;;;;;;5056690;28;20047;-78
2021/01/04 13:34:29;;;;;;;37.63;18.50;;;2.40;99.90;;;;;;5056200;28;20025;-78